sensor_id;sensor_type;location;lat;lon;timestamp;P1;durP1;ratioP1;P2;durP2;ratioP2
13171;SDS011;6651;53.200;10.432;2022-07-06T00:00:08;3.42;;;1.80;;
13171;SDS011;6651;53.200;10.432;2022-07-06T00:02:34;2.40;;;1.80;;
13171;SDS011;6651;53.200;10.432;2022-07-06T00:05:00;5.47;;;1.80;;
13171;SDS011;6651;53.200;10.432;2022-07-06T00:07:26;3.45;;;1.85;;
13171;SDS011;6651;53.200;10.432;2022-07-06T00:09:51;3.50;;;1.60;;
13171;SDS011;6651;53.200;10.432;2022-07-06T00:12:17;4.70;;;1.90;;
13171;SDS011;6651;53.200;10.432;2022-07-06T00:14:42;3.53;;;1.75;;
13171;SDS011;6651;53.200;10.432;2022-07-06T00:17:08;3.15;;;1.95;;
13171;SDS011;6651;53.200;10.432;2022-07-06T00:19:34;4.15;;;1.88;;
13171;SDS011;6651;53.200;10.432;2022-07-06T00:21:59;3.95;;;1.63;;
13171;SDS011;6651;53.200;10.432;2022-07-06T00:24:25;5.30;;;1.88;;
13171;SDS011;6651;53.200;10.432;2022-07-06T00:26:50;3.17;;;1.67;;
13171;SDS011;6651;53.200;10.432;2022-07-06T00:29:16;2.88;;;1.48;;
13171;SDS011;6651;53.200;10.432;2022-07-06T00:31:42;4.05;;;1.80;;
13171;SDS011;6651;53.200;10.432;2022-07-06T00:34:10;4.40;;;1.60;;
13171;SDS011;6651;53.200;10.432;2022-07-06T00:36:36;5.28;;;1.80;;
13171;SDS011;6651;53.200;10.432;2022-07-06T00:39:01;3.95;;;1.88;;
13171;SDS011;6651;53.200;10.432;2022-07-06T00:41:27;4.45;;;2.10;;
13171;SDS011;6651;53.200;10.432;2022-07-06T00:43:54;2.92;;;1.90;;
13171;SDS011;6651;53.200;10.432;2022-07-06T00:46:26;5.90;;;1.88;;
13171;SDS011;6651;53.200;10.432;2022-07-06T00:48:55;4.10;;;1.80;;
13171;SDS011;6651;53.200;10.432;2022-07-06T00:51:28;3.97;;;1.90;;
13171;SDS011;6651;53.200;10.432;2022-07-06T00:54:00;3.53;;;2.00;;
13171;SDS011;6651;53.200;10.432;2022-07-06T00:56:29;6.57;;;2.20;;
13171;SDS011;6651;53.200;10.432;2022-07-06T00:58:56;4.35;;;1.90;;
13171;SDS011;6651;53.200;10.432;2022-07-06T01:01:22;3.53;;;1.90;;
13171;SDS011;6651;53.200;10.432;2022-07-06T01:03:48;6.35;;;2.20;;
13171;SDS011;6651;53.200;10.432;2022-07-06T01:06:13;5.75;;;2.10;;
13171;SDS011;6651;53.200;10.432;2022-07-06T01:08:39;5.22;;;2.22;;
13171;SDS011;6651;53.200;10.432;2022-07-06T01:11:05;6.43;;;2.20;;
13171;SDS011;6651;53.200;10.432;2022-07-06T01:13:31;4.15;;;1.80;;
13171;SDS011;6651;53.200;10.432;2022-07-06T01:15:58;4.43;;;1.70;;
13171;SDS011;6651;53.200;10.432;2022-07-06T01:18:24;4.60;;;1.80;;
13171;SDS011;6651;53.200;10.432;2022-07-06T01:20:50;5.15;;;2.28;;
13171;SDS011;6651;53.200;10.432;2022-07-06T01:23:16;5.85;;;2.05;;
13171;SDS011;6651;53.200;10.432;2022-07-06T01:25:41;3.85;;;1.98;;
13171;SDS011;6651;53.200;10.432;2022-07-06T01:28:08;4.43;;;2.00;;
13171;SDS011;6651;53.200;10.432;2022-07-06T01:30:34;2.78;;;1.70;;
13171;SDS011;6651;53.200;10.432;2022-07-06T01:32:59;3.95;;;2.08;;
13171;SDS011;6651;53.200;10.432;2022-07-06T01:35:25;5.30;;;1.98;;
13171;SDS011;6651;53.200;10.432;2022-07-06T01:37:54;3.78;;;1.70;;
13171;SDS011;6651;53.200;10.432;2022-07-06T01:40:19;4.97;;;2.17;;
13171;SDS011;6651;53.200;10.432;2022-07-06T01:42:45;5.03;;;2.00;;
13171;SDS011;6651;53.200;10.432;2022-07-06T01:45:11;5.93;;;1.92;;
13171;SDS011;6651;53.200;10.432;2022-07-06T01:47:36;3.42;;;1.90;;
13171;SDS011;6651;53.200;10.432;2022-07-06T01:50:04;6.03;;;2.00;;
13171;SDS011;6651;53.200;10.432;2022-07-06T01:52:31;6.13;;;1.98;;
13171;SDS011;6651;53.200;10.432;2022-07-06T01:54:57;4.63;;;2.00;;
13171;SDS011;6651;53.200;10.432;2022-07-06T01:57:23;4.40;;;2.20;;
13171;SDS011;6651;53.200;10.432;2022-07-06T01:59:48;4.43;;;2.00;;
13171;SDS011;6651;53.200;10.432;2022-07-06T02:02:14;5.45;;;2.15;;
13171;SDS011;6651;53.200;10.432;2022-07-06T02:04:40;3.15;;;1.65;;
13171;SDS011;6651;53.200;10.432;2022-07-06T02:07:06;8.07;;;1.98;;
13171;SDS011;6651;53.200;10.432;2022-07-06T02:09:31;4.65;;;2.00;;
13171;SDS011;6651;53.200;10.432;2022-07-06T02:11:57;5.35;;;2.30;;
13171;SDS011;6651;53.200;10.432;2022-07-06T02:14:23;3.60;;;1.90;;
13171;SDS011;6651;53.200;10.432;2022-07-06T02:16:48;2.80;;;1.80;;
13171;SDS011;6651;53.200;10.432;2022-07-06T02:19:14;5.70;;;2.00;;
13171;SDS011;6651;53.200;10.432;2022-07-06T02:21:40;6.57;;;2.10;;
13171;SDS011;6651;53.200;10.432;2022-07-06T02:24:05;3.55;;;1.77;;
13171;SDS011;6651;53.200;10.432;2022-07-06T02:26:31;7.70;;;2.50;;
13171;SDS011;6651;53.200;10.432;2022-07-06T02:28:56;5.70;;;2.17;;
13171;SDS011;6651;53.200;10.432;2022-07-06T02:31:22;6.75;;;2.40;;
13171;SDS011;6651;53.200;10.432;2022-07-06T02:33:48;3.88;;;2.00;;
13171;SDS011;6651;53.200;10.432;2022-07-06T02:36:13;4.20;;;1.92;;
13171;SDS011;6651;53.200;10.432;2022-07-06T02:38:39;2.90;;;1.98;;
13171;SDS011;6651;53.200;10.432;2022-07-06T02:41:05;3.17;;;1.92;;
13171;SDS011;6651;53.200;10.432;2022-07-06T02:43:30;5.13;;;2.20;;
13171;SDS011;6651;53.200;10.432;2022-07-06T02:45:56;4.88;;;2.13;;
13171;SDS011;6651;53.200;10.432;2022-07-06T02:48:21;4.38;;;1.92;;
13171;SDS011;6651;53.200;10.432;2022-07-06T02:50:47;4.10;;;1.80;;
13171;SDS011;6651;53.200;10.432;2022-07-06T02:53:13;5.90;;;2.13;;
13171;SDS011;6651;53.200;10.432;2022-07-06T02:55:38;3.90;;;2.03;;
13171;SDS011;6651;53.200;10.432;2022-07-06T02:58:04;3.80;;;1.95;;
13171;SDS011;6651;53.200;10.432;2022-07-06T03:00:30;5.40;;;2.40;;
13171;SDS011;6651;53.200;10.432;2022-07-06T03:02:55;4.63;;;1.92;;
13171;SDS011;6651;53.200;10.432;2022-07-06T03:05:21;4.65;;;2.03;;
13171;SDS011;6651;53.200;10.432;2022-07-06T03:07:47;4.47;;;2.15;;
13171;SDS011;6651;53.200;10.432;2022-07-06T03:10:12;4.78;;;2.08;;
13171;SDS011;6651;53.200;10.432;2022-07-06T03:12:38;4.57;;;2.03;;
13171;SDS011;6651;53.200;10.432;2022-07-06T03:15:04;4.45;;;2.10;;
13171;SDS011;6651;53.200;10.432;2022-07-06T03:17:30;3.97;;;2.08;;
13171;SDS011;6651;53.200;10.432;2022-07-06T03:19:55;4.68;;;2.15;;
13171;SDS011;6651;53.200;10.432;2022-07-06T03:22:21;4.07;;;2.10;;
13171;SDS011;6651;53.200;10.432;2022-07-06T03:24:47;5.78;;;2.00;;
13171;SDS011;6651;53.200;10.432;2022-07-06T03:27:12;4.80;;;1.80;;
13171;SDS011;6651;53.200;10.432;2022-07-06T03:29:41;3.38;;;2.00;;
13171;SDS011;6651;53.200;10.432;2022-07-06T03:32:07;5.72;;;2.10;;
13171;SDS011;6651;53.200;10.432;2022-07-06T03:34:33;5.93;;;2.20;;
13171;SDS011;6651;53.200;10.432;2022-07-06T03:36:58;3.45;;;1.92;;
13171;SDS011;6651;53.200;10.432;2022-07-06T03:39:24;3.97;;;1.90;;
13171;SDS011;6651;53.200;10.432;2022-07-06T03:41:49;4.70;;;2.10;;
13171;SDS011;6651;53.200;10.432;2022-07-06T03:44:15;4.63;;;1.92;;
13171;SDS011;6651;53.200;10.432;2022-07-06T03:46:41;6.25;;;2.10;;
13171;SDS011;6651;53.200;10.432;2022-07-06T03:49:06;4.35;;;1.92;;
13171;SDS011;6651;53.200;10.432;2022-07-06T03:56:27;4.95;;;2.17;;
13171;SDS011;6651;53.200;10.432;2022-07-06T03:58:53;4.55;;;2.20;;
13171;SDS011;6651;53.200;10.432;2022-07-06T04:01:19;4.78;;;2.08;;
13171;SDS011;6651;53.200;10.432;2022-07-06T04:03:45;3.85;;;2.20;;
13171;SDS011;6651;53.200;10.432;2022-07-06T04:06:11;5.78;;;2.40;;
13171;SDS011;6651;53.200;10.432;2022-07-06T04:08:36;5.40;;;2.10;;
13171;SDS011;6651;53.200;10.432;2022-07-06T04:11:02;6.30;;;2.00;;
13171;SDS011;6651;53.200;10.432;2022-07-06T04:13:28;4.78;;;2.30;;
13171;SDS011;6651;53.200;10.432;2022-07-06T04:15:53;5.10;;;2.10;;
13171;SDS011;6651;53.200;10.432;2022-07-06T04:18:19;4.72;;;2.20;;
13171;SDS011;6651;53.200;10.432;2022-07-06T04:20:45;4.03;;;1.92;;
13171;SDS011;6651;53.200;10.432;2022-07-06T04:23:11;4.85;;;2.20;;
13171;SDS011;6651;53.200;10.432;2022-07-06T04:25:36;4.18;;;1.80;;
13171;SDS011;6651;53.200;10.432;2022-07-06T04:28:02;4.78;;;2.10;;
13171;SDS011;6651;53.200;10.432;2022-07-06T04:30:28;6.25;;;2.22;;
13171;SDS011;6651;53.200;10.432;2022-07-06T04:32:54;7.30;;;2.13;;
13171;SDS011;6651;53.200;10.432;2022-07-06T04:35:20;3.83;;;1.98;;
13171;SDS011;6651;53.200;10.432;2022-07-06T04:37:46;4.72;;;2.15;;
13171;SDS011;6651;53.200;10.432;2022-07-06T04:40:12;4.50;;;1.98;;
13171;SDS011;6651;53.200;10.432;2022-07-06T04:42:39;3.55;;;1.95;;
13171;SDS011;6651;53.200;10.432;2022-07-06T04:45:05;3.92;;;1.98;;
13171;SDS011;6651;53.200;10.432;2022-07-06T04:47:31;7.13;;;2.20;;
13171;SDS011;6651;53.200;10.432;2022-07-06T04:49:57;4.13;;;1.80;;
13171;SDS011;6651;53.200;10.432;2022-07-06T04:52:22;2.90;;;2.03;;
13171;SDS011;6651;53.200;10.432;2022-07-06T04:54:48;5.22;;;2.30;;
13171;SDS011;6651;53.200;10.432;2022-07-06T04:57:14;6.53;;;1.88;;
13171;SDS011;6651;53.200;10.432;2022-07-06T04:59:39;6.63;;;2.22;;
13171;SDS011;6651;53.200;10.432;2022-07-06T05:02:05;7.47;;;2.10;;
13171;SDS011;6651;53.200;10.432;2022-07-06T05:04:31;5.60;;;2.10;;
13171;SDS011;6651;53.200;10.432;2022-07-06T05:06:57;5.30;;;2.20;;
13171;SDS011;6651;53.200;10.432;2022-07-06T05:09:23;7.65;;;2.47;;
13171;SDS011;6651;53.200;10.432;2022-07-06T05:11:49;6.00;;;2.20;;
13171;SDS011;6651;53.200;10.432;2022-07-06T05:14:15;4.78;;;2.08;;
13171;SDS011;6651;53.200;10.432;2022-07-06T05:16:40;6.75;;;2.25;;
13171;SDS011;6651;53.200;10.432;2022-07-06T05:19:06;5.45;;;1.92;;
13171;SDS011;6651;53.200;10.432;2022-07-06T05:21:32;6.13;;;2.28;;
13171;SDS011;6651;53.200;10.432;2022-07-06T05:23:57;6.70;;;2.15;;
13171;SDS011;6651;53.200;10.432;2022-07-06T05:26:23;5.25;;;1.90;;
13171;SDS011;6651;53.200;10.432;2022-07-06T05:28:48;3.28;;;1.75;;
13171;SDS011;6651;53.200;10.432;2022-07-06T05:31:14;3.33;;;1.80;;
13171;SDS011;6651;53.200;10.432;2022-07-06T05:33:40;7.40;;;2.25;;
13171;SDS011;6651;53.200;10.432;2022-07-06T05:36:06;3.97;;;1.88;;
13171;SDS011;6651;53.200;10.432;2022-07-06T05:38:32;4.38;;;2.00;;
13171;SDS011;6651;53.200;10.432;2022-07-06T05:40:58;3.55;;;1.83;;
13171;SDS011;6651;53.200;10.432;2022-07-06T05:43:24;5.13;;;2.05;;
13171;SDS011;6651;53.200;10.432;2022-07-06T05:45:49;5.32;;;2.08;;
13171;SDS011;6651;53.200;10.432;2022-07-06T05:48:15;4.63;;;2.03;;
13171;SDS011;6651;53.200;10.432;2022-07-06T05:50:59;4.45;;;1.85;;
13171;SDS011;6651;53.200;10.432;2022-07-06T05:53:25;4.35;;;1.95;;
13171;SDS011;6651;53.200;10.432;2022-07-06T05:55:50;3.47;;;1.73;;
13171;SDS011;6651;53.200;10.432;2022-07-06T05:58:16;4.63;;;1.70;;
13171;SDS011;6651;53.200;10.432;2022-07-06T06:00:42;4.30;;;1.60;;
13171;SDS011;6651;53.200;10.432;2022-07-06T06:03:07;3.85;;;1.98;;
13171;SDS011;6651;53.200;10.432;2022-07-06T06:05:33;4.95;;;2.03;;
13171;SDS011;6651;53.200;10.432;2022-07-06T06:07:59;4.75;;;2.00;;
13171;SDS011;6651;53.200;10.432;2022-07-06T06:10:25;4.32;;;1.80;;
13171;SDS011;6651;53.200;10.432;2022-07-06T06:12:51;4.65;;;1.80;;
13171;SDS011;6651;53.200;10.432;2022-07-06T06:15:17;5.10;;;1.85;;
13171;SDS011;6651;53.200;10.432;2022-07-06T06:17:43;6.00;;;1.98;;
13171;SDS011;6651;53.200;10.432;2022-07-06T06:20:10;4.00;;;1.65;;
13171;SDS011;6651;53.200;10.432;2022-07-06T06:22:47;3.08;;;1.50;;
13171;SDS011;6651;53.200;10.432;2022-07-06T06:25:16;5.78;;;1.80;;
13171;SDS011;6651;53.200;10.432;2022-07-06T06:27:44;6.93;;;1.90;;
13171;SDS011;6651;53.200;10.432;2022-07-06T06:30:10;4.40;;;1.88;;
13171;SDS011;6651;53.200;10.432;2022-07-06T06:32:37;5.63;;;1.60;;
13171;SDS011;6651;53.200;10.432;2022-07-06T06:35:03;5.75;;;1.73;;
13171;SDS011;6651;53.200;10.432;2022-07-06T06:37:29;4.80;;;1.42;;
13171;SDS011;6651;53.200;10.432;2022-07-06T06:39:55;2.78;;;1.50;;
13171;SDS011;6651;53.200;10.432;2022-07-06T06:42:21;2.40;;;1.20;;
13171;SDS011;6651;53.200;10.432;2022-07-06T06:44:47;6.57;;;1.98;;
13171;SDS011;6651;53.200;10.432;2022-07-06T06:47:12;5.20;;;1.60;;
13171;SDS011;6651;53.200;10.432;2022-07-06T06:49:38;3.42;;;1.35;;
13171;SDS011;6651;53.200;10.432;2022-07-06T06:52:03;1.48;;;1.17;;
13171;SDS011;6651;53.200;10.432;2022-07-06T06:54:29;3.45;;;1.00;;
13171;SDS011;6651;53.200;10.432;2022-07-06T06:56:58;3.83;;;1.23;;
13171;SDS011;6651;53.200;10.432;2022-07-06T06:59:23;3.55;;;1.23;;
13171;SDS011;6651;53.200;10.432;2022-07-06T07:01:49;3.42;;;1.20;;
13171;SDS011;6651;53.200;10.432;2022-07-06T07:04:14;3.40;;;1.20;;
13171;SDS011;6651;53.200;10.432;2022-07-06T07:06:40;4.57;;;1.60;;
13171;SDS011;6651;53.200;10.432;2022-07-06T07:09:06;3.83;;;1.20;;
13171;SDS011;6651;53.200;10.432;2022-07-06T07:11:32;4.80;;;1.63;;
13171;SDS011;6651;53.200;10.432;2022-07-06T07:13:58;3.95;;;1.13;;
13171;SDS011;6651;53.200;10.432;2022-07-06T07:16:25;1.08;;;0.80;;
13171;SDS011;6651;53.200;10.432;2022-07-06T07:18:51;3.65;;;1.55;;
13171;SDS011;6651;53.200;10.432;2022-07-06T07:21:17;3.00;;;1.20;;
13171;SDS011;6651;53.200;10.432;2022-07-06T07:23:43;3.28;;;1.20;;
13171;SDS011;6651;53.200;10.432;2022-07-06T07:26:08;4.20;;;1.40;;
13171;SDS011;6651;53.200;10.432;2022-07-06T07:28:34;2.85;;;1.42;;
13171;SDS011;6651;53.200;10.432;2022-07-06T07:31:00;2.05;;;1.20;;
13171;SDS011;6651;53.200;10.432;2022-07-06T07:33:25;3.20;;;1.30;;
13171;SDS011;6651;53.200;10.432;2022-07-06T07:35:51;4.35;;;1.50;;
13171;SDS011;6651;53.200;10.432;2022-07-06T07:38:17;4.05;;;1.33;;
13171;SDS011;6651;53.200;10.432;2022-07-06T07:40:43;4.32;;;1.23;;
13171;SDS011;6651;53.200;10.432;2022-07-06T07:43:08;5.28;;;1.48;;
13171;SDS011;6651;53.200;10.432;2022-07-06T07:45:34;4.18;;;1.20;;
13171;SDS011;6651;53.200;10.432;2022-07-06T07:47:59;4.32;;;1.50;;
13171;SDS011;6651;53.200;10.432;2022-07-06T07:50:25;3.08;;;1.15;;
13171;SDS011;6651;53.200;10.432;2022-07-06T07:52:51;3.50;;;1.17;;
13171;SDS011;6651;53.200;10.432;2022-07-06T07:55:17;4.82;;;1.30;;
13171;SDS011;6651;53.200;10.432;2022-07-06T07:57:43;3.83;;;1.40;;
13171;SDS011;6651;53.200;10.432;2022-07-06T08:00:09;4.22;;;1.38;;
13171;SDS011;6651;53.200;10.432;2022-07-06T08:02:35;5.63;;;1.38;;
13171;SDS011;6651;53.200;10.432;2022-07-06T08:05:01;2.75;;;1.27;;
13171;SDS011;6651;53.200;10.432;2022-07-06T08:07:27;3.10;;;1.30;;
13171;SDS011;6651;53.200;10.432;2022-07-06T08:09:53;4.32;;;1.25;;
13171;SDS011;6651;53.200;10.432;2022-07-06T08:12:18;1.95;;;1.30;;
13171;SDS011;6651;53.200;10.432;2022-07-06T08:14:44;2.95;;;1.30;;
13171;SDS011;6651;53.200;10.432;2022-07-06T08:17:13;5.43;;;1.35;;
13171;SDS011;6651;53.200;10.432;2022-07-06T08:19:38;3.70;;;1.30;;
13171;SDS011;6651;53.200;10.432;2022-07-06T08:22:04;2.78;;;1.27;;
13171;SDS011;6651;53.200;10.432;2022-07-06T08:24:33;3.38;;;1.60;;
13171;SDS011;6651;53.200;10.432;2022-07-06T08:26:59;2.50;;;1.25;;
13171;SDS011;6651;53.200;10.432;2022-07-06T08:29:25;3.60;;;1.38;;
13171;SDS011;6651;53.200;10.432;2022-07-06T08:31:50;5.28;;;1.75;;
13171;SDS011;6651;53.200;10.432;2022-07-06T08:34:16;2.75;;;1.38;;
13171;SDS011;6651;53.200;10.432;2022-07-06T08:36:42;3.50;;;1.60;;
13171;SDS011;6651;53.200;10.432;2022-07-06T08:39:07;3.50;;;1.30;;
13171;SDS011;6651;53.200;10.432;2022-07-06T08:41:33;4.22;;;1.20;;
13171;SDS011;6651;53.200;10.432;2022-07-06T08:44:01;3.92;;;1.30;;
13171;SDS011;6651;53.200;10.432;2022-07-06T08:46:28;4.53;;;1.50;;
13171;SDS011;6651;53.200;10.432;2022-07-06T08:48:56;3.97;;;1.30;;
13171;SDS011;6651;53.200;10.432;2022-07-06T08:51:22;2.03;;;1.00;;
13171;SDS011;6651;53.200;10.432;2022-07-06T08:53:49;2.38;;;1.20;;
13171;SDS011;6651;53.200;10.432;2022-07-06T08:56:16;3.70;;;1.40;;
13171;SDS011;6651;53.200;10.432;2022-07-06T08:58:43;3.53;;;1.30;;
13171;SDS011;6651;53.200;10.432;2022-07-06T09:01:09;4.25;;;1.10;;
13171;SDS011;6651;53.200;10.432;2022-07-06T09:03:35;1.75;;;0.90;;
13171;SDS011;6651;53.200;10.432;2022-07-06T09:06:01;2.30;;;1.10;;
13171;SDS011;6651;53.200;10.432;2022-07-06T09:08:29;3.15;;;1.05;;
13171;SDS011;6651;53.200;10.432;2022-07-06T09:10:56;4.18;;;1.30;;
13171;SDS011;6651;53.200;10.432;2022-07-06T09:13:22;2.38;;;1.15;;
13171;SDS011;6651;53.200;10.432;2022-07-06T09:15:47;4.38;;;1.20;;
13171;SDS011;6651;53.200;10.432;2022-07-06T09:18:13;4.88;;;1.17;;
13171;SDS011;6651;53.200;10.432;2022-07-06T09:20:40;4.15;;;1.30;;
13171;SDS011;6651;53.200;10.432;2022-07-06T09:23:06;4.57;;;1.38;;
13171;SDS011;6651;53.200;10.432;2022-07-06T09:25:33;3.25;;;1.33;;
13171;SDS011;6651;53.200;10.432;2022-07-06T09:28:00;4.85;;;1.38;;
13171;SDS011;6651;53.200;10.432;2022-07-06T09:30:27;2.50;;;1.20;;
13171;SDS011;6651;53.200;10.432;2022-07-06T09:32:54;2.25;;;0.95;;
13171;SDS011;6651;53.200;10.432;2022-07-06T09:35:28;4.45;;;1.35;;
13171;SDS011;6651;53.200;10.432;2022-07-06T09:38:02;2.63;;;1.00;;
13171;SDS011;6651;53.200;10.432;2022-07-06T09:40:39;3.53;;;0.88;;
13171;SDS011;6651;53.200;10.432;2022-07-06T09:43:12;4.38;;;1.05;;
13171;SDS011;6651;53.200;10.432;2022-07-06T09:45:44;2.90;;;1.10;;
13171;SDS011;6651;53.200;10.432;2022-07-06T09:48:14;0.93;;;0.73;;
13171;SDS011;6651;53.200;10.432;2022-07-06T09:50:57;3.25;;;1.00;;
13171;SDS011;6651;53.200;10.432;2022-07-06T09:55:56;4.68;;;0.98;;
13171;SDS011;6651;53.200;10.432;2022-07-06T09:58:26;1.58;;;0.80;;
13171;SDS011;6651;53.200;10.432;2022-07-06T10:00:52;1.95;;;0.73;;
13171;SDS011;6651;53.200;10.432;2022-07-06T10:03:19;1.75;;;0.70;;
13171;SDS011;6651;53.200;10.432;2022-07-06T10:05:45;1.42;;;0.70;;
13171;SDS011;6651;53.200;10.432;2022-07-06T10:08:13;4.45;;;1.17;;
13171;SDS011;6651;53.200;10.432;2022-07-06T10:10:41;1.85;;;1.02;;
13171;SDS011;6651;53.200;10.432;2022-07-06T10:13:07;1.38;;;0.73;;
13171;SDS011;6651;53.200;10.432;2022-07-06T10:15:38;2.15;;;0.75;;
13171;SDS011;6651;53.200;10.432;2022-07-06T10:18:05;3.03;;;0.98;;
13171;SDS011;6651;53.200;10.432;2022-07-06T10:20:34;2.92;;;0.60;;
13171;SDS011;6651;53.200;10.432;2022-07-06T10:23:03;1.75;;;0.73;;
13171;SDS011;6651;53.200;10.432;2022-07-06T10:25:30;0.88;;;0.77;;
13171;SDS011;6651;53.200;10.432;2022-07-06T10:27:57;3.65;;;1.00;;
13171;SDS011;6651;53.200;10.432;2022-07-06T10:30:24;2.13;;;0.65;;
13171;SDS011;6651;53.200;10.432;2022-07-06T10:32:51;2.00;;;1.00;;
13171;SDS011;6651;53.200;10.432;2022-07-06T10:35:19;1.60;;;0.65;;
13171;SDS011;6651;53.200;10.432;2022-07-06T10:37:45;2.40;;;0.80;;
13171;SDS011;6651;53.200;10.432;2022-07-06T10:40:40;1.35;;;0.73;;
13171;SDS011;6651;53.200;10.432;2022-07-06T10:43:34;1.52;;;0.52;;
13171;SDS011;6651;53.200;10.432;2022-07-06T10:46:05;1.60;;;0.55;;
13171;SDS011;6651;53.200;10.432;2022-07-06T10:48:36;2.72;;;0.80;;
13171;SDS011;6651;53.200;10.432;2022-07-06T10:51:05;2.38;;;0.70;;
13171;SDS011;6651;53.200;10.432;2022-07-06T10:53:32;4.35;;;0.80;;
13171;SDS011;6651;53.200;10.432;2022-07-06T10:56:00;3.45;;;0.93;;
13171;SDS011;6651;53.200;10.432;2022-07-06T10:58:47;2.03;;;0.80;;
13171;SDS011;6651;53.200;10.432;2022-07-06T11:01:18;4.50;;;1.20;;
13171;SDS011;6651;53.200;10.432;2022-07-06T11:03:49;2.67;;;0.80;;
13171;SDS011;6651;53.200;10.432;2022-07-06T11:08:49;2.08;;;0.90;;
13171;SDS011;6651;53.200;10.432;2022-07-06T11:11:19;3.30;;;1.20;;
13171;SDS011;6651;53.200;10.432;2022-07-06T11:13:53;1.85;;;0.82;;
13171;SDS011;6651;53.200;10.432;2022-07-06T11:16:19;3.28;;;1.00;;
13171;SDS011;6651;53.200;10.432;2022-07-06T11:18:48;5.03;;;1.13;;
13171;SDS011;6651;53.200;10.432;2022-07-06T11:21:24;3.40;;;1.00;;
13171;SDS011;6651;53.200;10.432;2022-07-06T11:23:58;3.88;;;0.98;;
13171;SDS011;6651;53.200;10.432;2022-07-06T11:26:24;2.75;;;1.02;;
13171;SDS011;6651;53.200;10.432;2022-07-06T11:28:50;2.75;;;1.02;;
13171;SDS011;6651;53.200;10.432;2022-07-06T11:31:16;4.30;;;0.90;;
13171;SDS011;6651;53.200;10.432;2022-07-06T11:33:44;1.45;;;0.52;;
13171;SDS011;6651;53.200;10.432;2022-07-06T11:36:15;2.05;;;0.60;;
13171;SDS011;6651;53.200;10.432;2022-07-06T11:38:42;2.40;;;0.80;;
13171;SDS011;6651;53.200;10.432;2022-07-06T11:41:09;3.30;;;1.05;;
13171;SDS011;6651;53.200;10.432;2022-07-06T11:43:36;2.25;;;0.85;;
13171;SDS011;6651;53.200;10.432;2022-07-06T11:46:02;3.67;;;1.00;;
13171;SDS011;6651;53.200;10.432;2022-07-06T11:48:28;3.45;;;0.90;;
13171;SDS011;6651;53.200;10.432;2022-07-06T11:51:00;2.63;;;1.00;;
13171;SDS011;6651;53.200;10.432;2022-07-06T11:53:28;3.67;;;1.02;;
13171;SDS011;6651;53.200;10.432;2022-07-06T11:55:54;3.03;;;0.80;;
13171;SDS011;6651;53.200;10.432;2022-07-06T11:58:20;2.35;;;1.00;;
13171;SDS011;6651;53.200;10.432;2022-07-06T12:01:07;2.88;;;1.20;;
13171;SDS011;6651;53.200;10.432;2022-07-06T12:03:36;2.40;;;0.60;;
13171;SDS011;6651;53.200;10.432;2022-07-06T12:06:06;1.27;;;0.57;;
13171;SDS011;6651;53.200;10.432;2022-07-06T12:08:45;2.10;;;0.88;;
13171;SDS011;6651;53.200;10.432;2022-07-06T12:11:21;2.30;;;0.88;;
13171;SDS011;6651;53.200;10.432;2022-07-06T12:13:52;1.52;;;0.65;;
13171;SDS011;6651;53.200;10.432;2022-07-06T12:16:20;1.63;;;0.63;;
13171;SDS011;6651;53.200;10.432;2022-07-06T12:18:48;3.25;;;1.30;;
13171;SDS011;6651;53.200;10.432;2022-07-06T12:21:16;2.00;;;0.80;;
13171;SDS011;6651;53.200;10.432;2022-07-06T12:23:50;1.58;;;0.88;;
13171;SDS011;6651;53.200;10.432;2022-07-06T12:26:18;2.28;;;1.02;;
13171;SDS011;6651;53.200;10.432;2022-07-06T12:28:45;4.57;;;1.00;;
13171;SDS011;6651;53.200;10.432;2022-07-06T12:31:30;2.88;;;1.20;;
13171;SDS011;6651;53.200;10.432;2022-07-06T12:33:58;1.42;;;0.82;;
13171;SDS011;6651;53.200;10.432;2022-07-06T12:36:24;1.20;;;0.63;;
13171;SDS011;6651;53.200;10.432;2022-07-06T12:38:53;3.70;;;0.98;;
13171;SDS011;6651;53.200;10.432;2022-07-06T12:41:26;2.65;;;0.85;;
13171;SDS011;6651;53.200;10.432;2022-07-06T12:43:59;2.65;;;1.00;;
13171;SDS011;6651;53.200;10.432;2022-07-06T12:46:33;2.58;;;0.93;;
13171;SDS011;6651;53.200;10.432;2022-07-06T12:49:04;3.40;;;1.17;;
13171;SDS011;6651;53.200;10.432;2022-07-06T12:54:43;3.17;;;1.00;;
13171;SDS011;6651;53.200;10.432;2022-07-06T12:57:14;2.22;;;0.82;;
13171;SDS011;6651;53.200;10.432;2022-07-06T13:00:02;5.60;;;1.30;;
13171;SDS011;6651;53.200;10.432;2022-07-06T13:02:30;3.08;;;0.93;;
13171;SDS011;6651;53.200;10.432;2022-07-06T13:05:02;3.60;;;1.00;;
13171;SDS011;6651;53.200;10.432;2022-07-06T13:07:31;2.90;;;0.70;;
13171;SDS011;6651;53.200;10.432;2022-07-06T13:10:00;3.85;;;1.20;;
13171;SDS011;6651;53.200;10.432;2022-07-06T13:12:27;3.83;;;0.80;;
13171;SDS011;6651;53.200;10.432;2022-07-06T13:14:53;2.25;;;0.70;;
13171;SDS011;6651;53.200;10.432;2022-07-06T13:17:19;2.25;;;0.80;;
13171;SDS011;6651;53.200;10.432;2022-07-06T13:19:45;3.88;;;1.00;;
13171;SDS011;6651;53.200;10.432;2022-07-06T13:22:10;2.30;;;1.05;;
13171;SDS011;6651;53.200;10.432;2022-07-06T13:24:36;2.20;;;0.88;;
13171;SDS011;6651;53.200;10.432;2022-07-06T13:27:02;2.00;;;0.90;;
13171;SDS011;6651;53.200;10.432;2022-07-06T13:29:28;3.63;;;0.90;;
13171;SDS011;6651;53.200;10.432;2022-07-06T13:31:54;4.30;;;1.23;;
13171;SDS011;6651;53.200;10.432;2022-07-06T13:34:20;2.47;;;0.90;;
13171;SDS011;6651;53.200;10.432;2022-07-06T13:36:46;2.88;;;0.65;;
13171;SDS011;6651;53.200;10.432;2022-07-06T13:39:12;4.60;;;1.23;;
13171;SDS011;6651;53.200;10.432;2022-07-06T13:41:38;2.83;;;0.77;;
13171;SDS011;6651;53.200;10.432;2022-07-06T13:44:03;1.65;;;0.85;;
13171;SDS011;6651;53.200;10.432;2022-07-06T13:46:30;1.35;;;0.70;;
13171;SDS011;6651;53.200;10.432;2022-07-06T13:48:57;2.42;;;0.93;;
13171;SDS011;6651;53.200;10.432;2022-07-06T13:51:24;3.20;;;1.05;;
13171;SDS011;6651;53.200;10.432;2022-07-06T13:53:51;4.43;;;0.90;;
13171;SDS011;6651;53.200;10.432;2022-07-06T13:56:18;2.88;;;0.98;;
13171;SDS011;6651;53.200;10.432;2022-07-06T13:58:44;2.78;;;1.00;;
13171;SDS011;6651;53.200;10.432;2022-07-06T14:01:09;1.55;;;0.77;;
13171;SDS011;6651;53.200;10.432;2022-07-06T14:03:35;3.22;;;1.13;;
13171;SDS011;6651;53.200;10.432;2022-07-06T14:06:03;2.17;;;1.00;;
13171;SDS011;6651;53.200;10.432;2022-07-06T14:08:32;2.50;;;0.88;;
13171;SDS011;6651;53.200;10.432;2022-07-06T14:10:59;4.25;;;0.90;;
13171;SDS011;6651;53.200;10.432;2022-07-06T14:13:25;2.50;;;0.70;;
13171;SDS011;6651;53.200;10.432;2022-07-06T14:15:52;2.88;;;0.80;;
13171;SDS011;6651;53.200;10.432;2022-07-06T14:18:20;2.00;;;0.98;;
13171;SDS011;6651;53.200;10.432;2022-07-06T14:20:47;3.63;;;1.10;;
13171;SDS011;6651;53.200;10.432;2022-07-06T14:23:13;3.45;;;0.90;;
13171;SDS011;6651;53.200;10.432;2022-07-06T14:25:40;2.22;;;1.05;;
13171;SDS011;6651;53.200;10.432;2022-07-06T14:28:06;1.77;;;0.70;;
13171;SDS011;6651;53.200;10.432;2022-07-06T14:30:36;1.50;;;0.60;;
13171;SDS011;6651;53.200;10.432;2022-07-06T14:33:05;4.50;;;1.17;;
13171;SDS011;6651;53.200;10.432;2022-07-06T14:35:36;1.20;;;0.68;;
13171;SDS011;6651;53.200;10.432;2022-07-06T14:38:07;3.70;;;0.70;;
13171;SDS011;6651;53.200;10.432;2022-07-06T14:40:33;3.85;;;1.15;;
13171;SDS011;6651;53.200;10.432;2022-07-06T14:43:00;3.78;;;0.65;;
13171;SDS011;6651;53.200;10.432;2022-07-06T14:45:26;1.70;;;0.80;;
13171;SDS011;6651;53.200;10.432;2022-07-06T14:47:52;1.92;;;0.68;;
13171;SDS011;6651;53.200;10.432;2022-07-06T14:50:18;1.52;;;1.00;;
13171;SDS011;6651;53.200;10.432;2022-07-06T14:52:44;2.70;;;1.00;;
13171;SDS011;6651;53.200;10.432;2022-07-06T14:55:10;1.38;;;0.73;;
13171;SDS011;6651;53.200;10.432;2022-07-06T14:57:36;2.47;;;0.88;;
13171;SDS011;6651;53.200;10.432;2022-07-06T15:00:02;3.78;;;0.95;;